Time;durP1;ratioP1;P1;durP2;ratioP2;P2;SDS_P1;SDS_P2;PMS_P1;PMS_P2;Temp;Humidity;BMP_temperature;BMP_pressure;BME280_temperature;BME280_humidity;BME280_pressure;Samples;Min_cycle;Max_cycle;Signal;HPM_P1;HPM_P2
2022/01/04 00:00:44;;;;;;;45.25;29.77;;;153.70;2252.80;;;;;;5030050;28;20022;-58
2022/01/04 00:03:10;;;;;;;46.00;29.95;;;153.80;2252.80;;;;;;5029981;28;20045;-58
2022/01/04 00:05:37;;;;;;;55.35;33.28;;;153.80;2252.80;;;;;;5030025;28;20499;-57
2022/01/04 00:08:07;;;;;;;111.13;73.53;;;153.80;2252.80;;;;;;5029986;28;20044;-58
2022/01/04 00:10:33;;;;;;;50.35;30.17;;;153.70;2252.80;;;;;;5029738;28;20060;-58
2022/01/04 00:15:44;;;;;;;91.65;51.72;;;153.60;2252.80;;;;;;5030032;28;20040;-58
2022/01/04 00:18:10;;;;;;;100.00;63.63;;;153.60;2252.80;;;;;;5029842;28;20052;-57
2022/01/04 00:20:36;;;;;;;54.85;32.42;;;128.90;2252.80;;;;;;5029991;28;20084;-57
2022/01/04 00:23:03;;;;;;;94.43;60.15;;;128.70;2252.80;;;;;;5029647;28;20025;-58
2022/01/04 00:25:28;;;;;;;49.65;30.15;;;128.80;2252.80;;;;;;5029466;28;20026;-58
2022/01/04 00:27:54;;;;;;;61.15;34.28;;;128.70;2252.80;;;;;;5029840;28;20453;-58
2022/01/04 00:30:20;;;;;;;49.83;26.80;;;128.60;2252.80;;;;;;5029382;28;20034;-58
2022/01/04 00:32:46;;;;;;;56.10;32.30;;;128.80;2252.80;;;;;;5029731;28;20055;-58
2022/01/04 00:35:12;;;;;;;86.22;48.65;;;128.80;2252.80;;;;;;5033221;28;20033;-58
2022/01/04 00:37:38;;;;;;;31.48;20.02;;;128.80;2252.80;;;;;;5033466;28;20025;-58
2022/01/04 00:40:05;;;;;;;23.10;14.32;;;128.90;2252.80;;;;;;5033275;28;20021;-58
2022/01/04 00:42:31;;;;;;;22.38;14.15;;;153.60;2252.80;;;;;;5033572;28;20047;-58
2022/01/04 00:44:56;;;;;;;39.80;25.25;;;128.90;2252.80;;;;;;5033403;28;20472;-57
2022/01/04 00:47:28;;;;;;;79.18;45.80;;;128.90;2252.80;;;;;;5033501;28;20038;-58
2022/01/04 00:49:54;;;;;;;59.92;33.78;;;128.90;2252.80;;;;;;5034043;28;20029;-58
2022/01/04 00:52:19;;;;;;;91.05;47.95;;;128.80;2252.80;;;;;;5034441;28;20061;-58
2022/01/04 00:54:46;;;;;;;36.50;21.60;;;128.90;2252.80;;;;;;5033405;28;20498;-58
2022/01/04 00:57:12;;;;;;;32.13;20.08;;;128.90;2252.80;;;;;;5033369;28;20439;-59
2022/01/04 00:59:37;;;;;;;101.80;57.13;;;128.80;2252.80;;;;;;5041955;28;20025;-58
2022/01/04 01:02:04;;;;;;;75.78;47.50;;;128.70;2252.80;;;;;;5041952;28;20090;-59
2022/01/04 01:04:29;;;;;;;26.70;16.27;;;128.70;2252.80;;;;;;5043416;28;20035;-56
2022/01/04 01:06:55;;;;;;;69.20;40.63;;;128.70;2252.80;;;;;;5041245;28;20116;-59
2022/01/04 01:09:24;;;;;;;57.72;31.73;;;128.60;2252.80;;;;;;5042298;28;20422;-60
2022/01/04 01:11:49;;;;;;;61.03;41.63;;;128.40;2252.80;;;;;;5047506;28;20051;-57
2022/01/04 01:14:15;;;;;;;43.30;28.52;;;128.50;2252.80;;;;;;5042414;28;20123;-58
2022/01/04 01:16:41;;;;;;;47.13;34.10;;;128.40;2252.80;;;;;;5042929;28;21486;-58
2022/01/04 01:19:07;;;;;;;44.58;25.92;;;128.30;2252.80;;;;;;5042284;28;20134;-59
2022/01/04 01:21:33;;;;;;;48.58;26.95;;;128.30;2252.80;;;;;;5042883;28;20025;-57
2022/01/04 01:23:58;;;;;;;34.83;19.88;;;128.30;2252.80;;;;;;5042729;28;20024;-57
2022/01/04 01:26:24;;;;;;;44.40;27.30;;;128.20;2252.80;;;;;;5042053;28;20026;-59
2022/01/04 01:28:50;;;;;;;29.45;18.13;;;128.40;2252.80;;;;;;5041060;28;20481;-57
2022/01/04 01:31:16;;;;;;;40.33;18.55;;;128.40;2252.80;;;;;;5042872;28;20051;-56
2022/01/04 01:33:41;;;;;;;32.38;19.35;;;128.40;2252.80;;;;;;5041710;28;20391;-57
2022/01/04 01:36:07;;;;;;;33.47;19.83;;;128.50;2252.80;;;;;;5041429;28;20043;-58
2022/01/04 01:38:33;;;;;;;34.85;20.08;;;128.60;2252.80;;;;;;5042914;28;20478;-57
2022/01/04 01:40:59;;;;;;;26.83;17.88;;;128.60;2252.80;;;;;;5040978;28;20022;-58
2022/01/04 01:43:28;;;;;;;29.08;17.02;;;128.60;2252.80;;;;;;5040557;28;20438;-57
2022/01/04 01:45:54;;;;;;;35.10;19.35;;;128.60;2252.80;;;;;;5042138;28;20564;-58
2022/01/04 01:48:20;;;;;;;26.73;13.80;;;128.50;2252.80;;;;;;5033743;28;20025;-57
2022/01/04 01:50:46;;;;;;;30.35;16.95;;;128.10;2252.80;;;;;;5032234;28;20065;-57
2022/01/04 01:53:12;;;;;;;27.77;18.92;;;128.10;2252.80;;;;;;5032196;28;20017;-57
2022/01/04 01:55:38;;;;;;;26.88;15.90;;;128.10;2252.80;;;;;;5032060;28;20029;-58
2022/01/04 01:58:05;;;;;;;25.30;17.10;;;128.10;2252.80;;;;;;5030969;28;20048;-58
2022/01/04 02:00:31;;;;;;;32.00;18.90;;;128.10;2252.80;;;;;;5031897;28;20033;-58
2022/01/04 02:02:57;;;;;;;23.88;15.98;;;128.20;2252.80;;;;;;5031861;28;20140;-57
2022/01/04 02:05:23;;;;;;;37.08;21.35;;;128.00;2252.80;;;;;;5032076;28;20021;-58
2022/01/04 02:07:50;;;;;;;27.95;15.90;;;128.10;2252.80;;;;;;5031649;28;20026;-58
2022/01/04 02:10:16;;;;;;;149.30;63.92;;;128.20;2252.80;;;;;;5031784;28;20030;-58
2022/01/04 02:12:47;;;;;;;102.97;50.20;;;128.40;2252.80;;;;;;5031648;28;20064;-57
2022/01/04 02:15:18;;;;;;;116.55;54.97;;;128.20;2252.80;;;;;;5032140;28;20021;-58
2022/01/04 02:17:44;;;;;;;77.57;39.92;;;128.10;2252.80;;;;;;5031659;28;20499;-58
2022/01/04 02:20:11;;;;;;;45.28;24.52;;;128.20;2252.80;;;;;;5031682;28;20017;-58
2022/01/04 02:22:37;;;;;;;55.88;31.88;;;128.30;2252.80;;;;;;5031537;28;20104;-57
2022/01/04 02:25:04;;;;;;;32.78;17.48;;;128.10;2252.80;;;;;;5031387;28;20025;-58
2022/01/04 02:27:33;;;;;;;31.13;17.65;;;128.10;2252.80;;;;;;5031572;28;20435;-57
2022/01/04 02:30:00;;;;;;;49.58;30.90;;;128.20;2252.80;;;;;;5031229;28;20029;-57
2022/01/04 02:32:26;;;;;;;29.55;18.65;;;128.30;2252.80;;;;;;5031467;28;20037;-58
2022/01/04 02:34:52;;;;;;;38.70;24.95;;;128.40;2252.80;;;;;;5031099;28;20038;-58
2022/01/04 02:37:27;;;;;;;24.10;15.75;;;128.50;2252.80;;;;;;5031040;28;20048;-57
2022/01/04 02:39:54;;;;;;;20.50;12.38;;;128.40;2252.80;;;;;;5031113;28;20095;-58
2022/01/04 02:42:20;;;;;;;22.52;12.40;;;128.10;2252.80;;;;;;5031029;28;20051;-58
2022/01/04 02:44:46;;;;;;;29.80;19.83;;;128.00;2252.80;;;;;;5031199;28;20033;-57
2022/01/04 02:47:13;;;;;;;15.50;8.43;;;128.30;2252.80;;;;;;5031094;28;20033;-58
2022/01/04 02:49:39;;;;;;;14.05;9.32;;;128.30;2252.80;;;;;;5030994;28;20026;-58
2022/01/04 02:52:05;;;;;;;17.60;10.25;;;128.40;2252.80;;;;;;5031023;28;20045;-58
2022/01/04 02:54:31;;;;;;;22.05;13.98;;;128.40;2252.80;;;;;;5030923;28;20031;-57
2022/01/04 02:56:56;;;;;;;17.30;10.10;;;128.40;2252.80;;;;;;5030469;28;20034;-57
2022/01/04 02:59:22;;;;;;;26.45;13.68;;;128.40;2252.80;;;;;;5030708;28;20052;-57
2022/01/04 03:01:48;;;;;;;21.63;13.63;;;128.50;2252.80;;;;;;5030371;28;20045;-58
2022/01/04 03:04:14;;;;;;;31.23;21.45;;;128.50;2252.80;;;;;;5029771;28;20036;-58
2022/01/04 03:06:39;;;;;;;31.88;17.60;;;128.50;2252.80;;;;;;5030773;28;20155;-58
2022/01/04 03:09:06;;;;;;;34.22;23.42;;;128.50;2252.80;;;;;;5030827;28;20022;-58
2022/01/04 03:11:34;;;;;;;43.10;26.83;;;128.50;2252.80;;;;;;5030472;28;20041;-57
2022/01/04 03:14:00;;;;;;;26.23;15.82;;;128.60;2252.80;;;;;;5030707;28;20022;-58
2022/01/04 03:16:26;;;;;;;21.02;12.05;;;128.70;2252.80;;;;;;5030616;28;20029;-58
2022/01/04 03:19:13;;;;;;;17.65;10.60;;;128.80;2252.80;;;;;;5030485;28;20026;-58
2022/01/04 03:21:43;;;;;;;23.58;13.73;;;128.90;2252.80;;;;;;5030392;28;20045;-58
2022/01/04 03:24:12;;;;;;;14.45;8.10;;;128.90;2252.80;;;;;;5030480;28;20048;-57
2022/01/04 03:26:38;;;;;;;22.52;14.43;;;153.60;2252.80;;;;;;5030527;28;20029;-57
2022/01/04 03:29:05;;;;;;;28.98;17.48;;;153.60;2252.80;;;;;;5030591;28;20037;-58
2022/01/04 03:31:31;;;;;;;16.20;10.18;;;153.60;2252.80;;;;;;5030063;28;20042;-57
2022/01/04 03:33:57;;;;;;;18.15;13.70;;;128.90;2252.80;;;;;;5030328;28;20029;-58
2022/01/04 03:36:24;;;;;;;16.38;11.52;;;128.80;2252.80;;;;;;5030654;28;20026;-58
2022/01/04 03:38:54;;;;;;;15.38;9.00;;;128.80;2252.80;;;;;;5030077;28;20438;-58
2022/01/04 03:41:22;;;;;;;15.50;8.60;;;128.70;2252.80;;;;;;5029972;28;20372;-57
2022/01/04 03:43:48;;;;;;;27.50;16.98;;;128.70;2252.80;;;;;;5030446;28;20040;-58
2022/01/04 03:46:14;;;;;;;16.70;9.70;;;128.80;2252.80;;;;;;5030282;28;20048;-57
2022/01/04 03:48:40;;;;;;;23.15;12.18;;;128.80;2252.80;;;;;;5030182;28;20037;-58
2022/01/04 03:51:07;;;;;;;15.88;10.48;;;128.90;2252.80;;;;;;5030124;28;20033;-58
2022/01/04 03:53:34;;;;;;;22.45;11.38;;;153.60;2252.80;;;;;;5030367;28;20464;-58
2022/01/04 03:56:00;;;;;;;18.55;12.35;;;153.60;2252.80;;;;;;5029936;28;20029;-57
2022/01/04 03:58:25;;;;;;;21.30;14.45;;;153.70;2252.80;;;;;;5030137;28;20487;-57
2022/01/04 04:00:51;;;;;;;31.30;16.77;;;153.70;2252.80;;;;;;5029809;28;20048;-58
2022/01/04 04:03:17;;;;;;;30.90;17.15;;;153.80;2252.80;;;;;;5030116;28;20049;-58
2022/01/04 04:05:43;;;;;;;30.23;20.50;;;153.80;2252.80;;;;;;5030246;28;20030;-58
2022/01/04 04:08:09;;;;;;;19.23;11.95;;;153.80;2252.80;;;;;;5030185;28;20084;-58
2022/01/04 04:10:35;;;;;;;19.15;11.55;;;153.80;2252.80;;;;;;5033936;28;20037;-58
2022/01/04 04:13:01;;;;;;;18.48;11.05;;;153.70;2252.80;;;;;;5032504;28;20091;-58
2022/01/04 04:15:26;;;;;;;17.35;10.38;;;128.90;2252.80;;;;;;5034153;28;20033;-58
2022/01/04 04:17:52;;;;;;;15.75;8.88;;;128.80;2252.80;;;;;;5033797;28;20037;-58
2022/01/04 04:20:18;;;;;;;23.10;15.48;;;128.90;2252.80;;;;;;5033982;28;20034;-58
2022/01/04 04:22:44;;;;;;;25.40;13.80;;;128.80;2252.80;;;;;;5033924;28;20033;-58
2022/01/04 04:25:10;;;;;;;22.65;14.18;;;128.90;2252.80;;;;;;5033759;28;20079;-58
2022/01/04 04:27:35;;;;;;;42.95;27.65;;;128.90;2252.80;;;;;;5033742;28;20029;-58
2022/01/04 04:30:02;;;;;;;30.23;18.33;;;128.90;2252.80;;;;;;5033401;28;20033;-58
2022/01/04 04:32:27;;;;;;;20.83;11.68;;;128.90;2252.80;;;;;;5033691;28;20424;-58
2022/01/04 04:34:53;;;;;;;19.23;13.55;;;128.80;2252.80;;;;;;5033679;28;20021;-57
2022/01/04 04:37:19;;;;;;;18.17;13.60;;;128.80;2252.80;;;;;;5033376;28;20108;-58
2022/01/04 04:39:44;;;;;;;18.17;9.48;;;128.70;2252.80;;;;;;5033521;28;20029;-58
2022/01/04 04:42:10;;;;;;;17.83;10.02;;;128.70;2252.80;;;;;;5033411;28;20029;-57
2022/01/04 04:44:36;;;;;;;18.38;11.55;;;128.70;2252.80;;;;;;5033435;28;20021;-58
2022/01/04 04:47:02;;;;;;;182.10;94.63;;;128.70;2252.80;;;;;;5033263;28;20040;-58
2022/01/04 04:49:28;;;;;;;84.38;45.05;;;128.80;2252.80;;;;;;5033219;28;20464;-58
2022/01/04 04:51:59;;;;;;;38.10;21.55;;;128.90;2252.80;;;;;;5033492;28;20037;-58
2022/01/04 04:54:27;;;;;;;32.97;19.50;;;128.90;2252.80;;;;;;5033271;28;20084;-58
2022/01/04 04:56:53;;;;;;;16.92;11.13;;;128.90;2252.80;;;;;;5033440;28;20029;-58
2022/01/04 04:59:19;;;;;;;13.93;9.70;;;128.80;2252.80;;;;;;5033623;28;20361;-58
2022/01/04 05:01:45;;;;;;;15.50;9.90;;;128.80;2252.80;;;;;;5033294;28;20140;-58
2022/01/04 05:04:10;;;;;;;13.93;11.10;;;128.70;2252.80;;;;;;5032634;28;20029;-58
2022/01/04 05:06:36;;;;;;;20.48;11.95;;;128.70;2252.80;;;;;;5032497;28;20029;-58
2022/01/04 05:09:02;;;;;;;12.68;10.02;;;128.60;2252.80;;;;;;5031604;28;20037;-57
2022/01/04 05:11:28;;;;;;;17.80;10.60;;;128.60;2252.80;;;;;;5031743;28;20060;-59
2022/01/04 05:13:54;;;;;;;23.75;15.15;;;128.60;2252.80;;;;;;5032041;28;20464;-58
2022/01/04 05:16:19;;;;;;;31.30;21.88;;;128.80;2252.80;;;;;;5031799;28;20104;-58
2022/01/04 05:18:45;;;;;;;20.02;12.60;;;128.70;2252.80;;;;;;5031679;28;20464;-58
2022/01/04 05:21:11;;;;;;;14.93;8.80;;;128.70;2252.80;;;;;;5031266;28;20091;-57
2022/01/04 05:23:37;;;;;;;15.35;8.35;;;128.60;2252.80;;;;;;5031635;28;20061;-57
2022/01/04 05:26:02;;;;;;;13.52;8.30;;;128.60;2252.80;;;;;;5031375;28;20468;-57
2022/01/04 05:28:28;;;;;;;16.55;9.60;;;128.80;2252.80;;;;;;5031572;28;20422;-58
2022/01/04 05:30:54;;;;;;;22.25;12.25;;;128.80;2252.80;;;;;;5031318;28;20104;-58
2022/01/04 05:33:20;;;;;;;24.70;13.50;;;128.80;2252.80;;;;;;5031263;28;20033;-58
2022/01/04 05:35:47;;;;;;;28.67;13.73;;;128.80;2252.80;;;;;;5031492;28;20021;-58
2022/01/04 05:38:13;;;;;;;30.27;15.25;;;128.80;2252.80;;;;;;5031189;28;20036;-58
2022/01/04 05:40:39;;;;;;;52.75;23.27;;;128.90;2252.80;;;;;;5031237;28;20030;-58
2022/01/04 05:43:05;;;;;;;34.72;21.08;;;153.60;2252.80;;;;;;5031197;28;20464;-57
2022/01/04 05:45:31;;;;;;;28.73;16.05;;;153.70;2252.80;;;;;;5031110;28;20033;-58
2022/01/04 05:47:57;;;;;;;17.35;10.07;;;153.70;2252.80;;;;;;5031281;28;20792;-57
2022/01/04 05:50:23;;;;;;;17.13;9.77;;;128.90;2252.80;;;;;;5031350;28;20128;-58
2022/01/04 05:52:49;;;;;;;17.98;10.70;;;128.50;2252.80;;;;;;5031145;28;20030;-58
2022/01/04 05:55:15;;;;;;;18.45;11.15;;;128.40;2252.80;;;;;;5031127;28;20482;-57
2022/01/04 05:57:40;;;;;;;16.20;10.05;;;128.40;2252.80;;;;;;5031109;28;20025;-57
2022/01/04 06:00:08;;;;;;;23.55;13.60;;;128.40;2252.80;;;;;;5030945;28;20032;-58
2022/01/04 06:02:34;;;;;;;14.27;9.35;;;128.20;2252.80;;;;;;4988300;28;1247458;-58
2022/01/04 06:04:59;;;;;;;14.52;9.02;;;128.30;2252.80;;;;;;5031769;28;20038;-58
2022/01/04 06:07:25;;;;;;;31.33;15.82;;;128.40;2252.80;;;;;;5031944;28;20108;-58
2022/01/04 06:09:53;;;;;;;29.13;15.13;;;128.40;2252.80;;;;;;5031599;28;20053;-58
2022/01/04 06:15:01;;;;;;;32.33;16.60;;;128.40;2252.80;;;;;;5031911;28;20075;-58
2022/01/04 06:17:31;;;;;;;58.13;28.83;;;128.40;2252.80;;;;;;5031792;28;20117;-58
2022/01/04 06:19:58;;;;;;;41.35;21.73;;;128.60;2252.80;;;;;;5031700;28;20530;-58
2022/01/04 06:22:28;;;;;;;24.63;11.68;;;128.70;2252.80;;;;;;5031637;28;20038;-58
2022/01/04 06:24:54;;;;;;;18.40;10.25;;;128.90;2252.80;;;;;;5031776;28;20399;-57
2022/01/04 06:27:21;;;;;;;24.40;17.38;;;128.90;2252.80;;;;;;5031374;28;20026;-57
2022/01/04 06:29:47;;;;;;;13.35;8.55;;;128.90;2252.80;;;;;;5031489;28;20033;-56
2022/01/04 06:32:13;;;;;;;13.63;8.13;;;153.70;2252.80;;;;;;5030620;28;20037;-58
2022/01/04 06:34:41;;;;;;;26.42;11.15;;;153.70;2252.80;;;;;;5031394;28;20037;-58
2022/01/04 06:37:07;;;;;;;16.95;9.70;;;153.60;2252.80;;;;;;5031311;28;20404;-57
2022/01/04 06:39:33;;;;;;;32.33;21.48;;;153.70;2252.80;;;;;;5031255;28;20025;-57
2022/01/04 06:41:59;;;;;;;46.97;34.97;;;153.60;2252.80;;;;;;5030930;28;20026;-57
2022/01/04 06:44:25;;;;;;;28.95;22.75;;;153.70;2252.80;;;;;;5031372;28;20032;-57
2022/01/04 06:46:51;;;;;;;36.53;24.08;;;153.80;2252.80;;;;;;5031041;28;20026;-57
2022/01/04 06:49:18;;;;;;;68.70;38.47;;;153.80;2252.80;;;;;;5031297;28;20611;-57
2022/01/04 06:51:45;;;;;;;69.85;44.20;;;154.00;2252.80;;;;;;5031043;28;20037;-57
2022/01/04 06:54:13;;;;;;;22.85;15.35;;;154.00;2252.80;;;;;;5030952;28;20025;-57
2022/01/04 06:56:38;;;;;;;29.27;23.75;;;154.00;2252.80;;;;;;5031139;28;20121;-58
2022/01/04 06:59:06;;;;;;;18.67;15.57;;;154.00;2252.80;;;;;;5031152;28;20064;-59
2022/01/04 07:01:34;;;;;;;22.77;12.43;;;154.10;2252.80;;;;;;5030521;28;20462;-59
2022/01/04 07:04:00;;;;;;;22.27;14.63;;;154.20;2252.80;;;;;;5030888;28;20033;-57
2022/01/04 07:06:27;;;;;;;16.63;12.45;;;154.20;2252.80;;;;;;5030988;28;20369;-57
2022/01/04 07:08:53;;;;;;;26.83;17.67;;;154.20;2252.80;;;;;;5030812;28;20059;-57
2022/01/04 07:11:19;;;;;;;27.95;19.40;;;154.20;2252.80;;;;;;5030691;28;20033;-57
2022/01/04 07:13:44;;;;;;;37.55;23.85;;;154.40;2252.80;;;;;;5030877;28;20464;-58
2022/01/04 07:16:11;;;;;;;52.60;35.83;;;154.40;2252.80;;;;;;5030730;28;20025;-57
2022/01/04 07:18:37;;;;;;;24.05;17.08;;;154.50;2252.80;;;;;;5030975;28;20029;-57
2022/01/04 07:21:03;;;;;;;27.75;17.48;;;154.40;2252.80;;;;;;5030673;28;20406;-58
2022/01/04 07:23:29;;;;;;;35.80;24.17;;;179.20;2252.80;;;;;;5030302;28;20025;-57
2022/01/04 07:25:56;;;;;;;24.88;15.95;;;179.30;2252.80;;;;;;5030493;28;20029;-58
2022/01/04 07:28:23;;;;;;;21.58;14.05;;;179.20;2252.80;;;;;;5030329;28;20112;-58
2022/01/04 07:30:49;;;;;;;21.42;12.85;;;179.30;2252.80;;;;;;5030289;28;20395;-57
2022/01/04 07:33:16;;;;;;;32.95;21.50;;;179.40;2252.80;;;;;;5030410;28;20052;-58
2022/01/04 07:35:43;;;;;;;24.90;14.15;;;179.30;2252.80;;;;;;5030417;28;20117;-57
2022/01/04 07:38:09;;;;;;;26.27;13.02;;;179.40;2252.80;;;;;;5030274;28;20024;-57
2022/01/04 07:40:34;;;;;;;23.17;14.85;;;179.40;2252.80;;;;;;5030430;28;20017;-57
2022/01/04 07:43:00;;;;;;;30.30;17.98;;;179.50;2252.80;;;;;;5030185;28;20047;-57
2022/01/04 07:45:30;;;;;;;42.78;32.00;;;179.50;2252.80;;;;;;5030232;28;20022;-57
2022/01/04 07:47:57;;;;;;;290.67;192.32;;;179.60;2252.80;;;;;;5030353;28;20032;-57
2022/01/04 07:50:23;;;;;;;137.60;95.40;;;179.60;2252.80;;;;;;5030089;28;20051;-58
2022/01/04 07:52:49;;;;;;;193.45;148.18;;;179.40;2252.80;;;;;;5030298;28;20403;-57
2022/01/04 07:55:15;;;;;;;32.75;24.83;;;179.50;2252.80;;;;;;5030517;28;20051;-57
2022/01/04 07:57:42;;;;;;;39.60;30.50;;;179.60;2252.80;;;;;;5030097;28;20069;-57
2022/01/04 08:00:09;;;;;;;149.95;131.50;;;179.80;2252.80;;;;;;5029720;28;20021;-57
2022/01/04 08:02:35;;;;;;;137.98;108.18;;;179.80;2252.80;;;;;;5029896;28;20125;-57
2022/01/04 08:05:00;;;;;;;161.15;135.20;;;179.90;2252.80;;;;;;5029764;28;20120;-57
2022/01/04 08:07:26;;;;;;;88.57;71.18;;;180.10;2252.80;;;;;;5030094;28;20029;-58
2022/01/04 08:09:52;;;;;;;64.50;44.92;;;180.10;2252.80;;;;;;5030046;28;20025;-57
2022/01/04 08:12:19;;;;;;;98.25;76.97;;;204.90;2252.80;;;;;;5028414;28;20049;-57
2022/01/04 08:14:45;;;;;;;138.68;101.90;;;205.10;2252.80;;;;;;5030125;28;20038;-57
2022/01/04 08:17:11;;;;;;;103.32;78.25;;;205.20;2252.80;;;;;;5029825;28;20400;-58
2022/01/04 08:19:37;;;;;;;77.35;53.90;;;205.40;2252.80;;;;;;5029960;28;20028;-57
2022/01/04 08:22:04;;;;;;;64.55;47.28;;;205.60;2252.80;;;;;;5029752;28;20037;-57
2022/01/04 08:24:30;;;;;;;135.85;96.25;;;205.70;2252.80;;;;;;5029667;28;20100;-56
2022/01/04 08:26:55;;;;;;;89.78;61.78;;;230.40;2252.80;;;;;;5029826;28;20528;-57
2022/01/04 08:29:21;;;;;;;73.53;51.40;;;230.60;2252.80;;;;;;5029814;28;20036;-59
2022/01/04 08:31:47;;;;;;;46.03;33.13;;;231.20;2252.80;;;;;;5029532;28;20037;-59
2022/01/04 08:34:13;;;;;;;37.90;28.00;;;256.50;2252.80;;;;;;5029940;28;20465;-57
2022/01/04 08:36:39;;;;;;;76.20;57.58;;;256.90;2252.80;;;;;;5029656;28;20032;-63
2022/01/04 08:39:05;;;;;;;95.07;72.60;;;281.70;2278.40;;;;;;5029567;28;20340;-64
2022/01/04 08:41:32;;;;;;;63.90;43.03;;;281.70;2278.40;;;;;;5029321;28;20025;-64
2022/01/04 08:43:57;;;;;;;78.35;54.35;;;281.80;2278.40;;;;;;5029627;28;20480;-64
2022/01/04 08:46:24;;;;;;;90.55;51.50;;;282.00;2278.40;;;;;;5029661;28;20204;-60
2022/01/04 08:48:50;;;;;;;73.65;47.90;;;307.30;2304.00;;;;;;5029505;28;20024;-60
2022/01/04 08:51:16;;;;;;;52.13;36.97;;;332.80;2329.60;;;;;;5029545;28;20029;-66
2022/01/04 08:53:42;;;;;;;52.17;33.88;;;333.60;2329.60;;;;;;5029612;28;20372;-64
2022/01/04 08:56:08;;;;;;;111.88;78.32;;;358.90;2227.20;;;;;;5032947;28;20025;-57
2022/01/04 08:58:34;;;;;;;83.30;61.63;;;384.10;2150.40;;;;;;5033236;28;20383;-58
2022/01/04 09:01:02;;;;;;;343.95;288.70;;;384.30;2073.60;;;;;;5032879;28;20479;-63
2022/01/04 09:03:28;;;;;;;420.83;345.83;;;384.80;2048.00;;;;;;5032934;28;20034;-58
2022/01/04 09:05:54;;;;;;;444.45;364.95;;;409.80;1971.20;;;;;;5033057;28;20029;-64
2022/01/04 09:08:20;;;;;;;224.32;179.50;;;384.60;1945.60;;;;;;5032698;28;20538;-63
2022/01/04 09:10:46;;;;;;;196.20;166.02;;;359.30;1971.20;;;;;;5032876;28;20037;-66
2022/01/04 09:13:22;;;;;;;170.32;145.77;;;384.00;1971.20;;;;;;5032735;28;20025;-61
2022/01/04 09:18:46;;;;;;;365.25;297.60;;;384.20;1971.20;;;;;;5042883;28;20087;-57
2022/01/04 09:21:17;;;;;;;135.40;105.00;;;384.60;1971.20;;;;;;5042826;28;20087;-65
2022/01/04 09:23:45;;;;;;;155.77;125.78;;;384.80;1920.00;;;;;;5041917;28;20024;-60
2022/01/04 09:26:12;;;;;;;349.83;277.15;;;384.90;1971.20;;;;;;5041448;28;20460;-56
2022/01/04 09:28:39;;;;;;;232.98;185.45;;;359.10;1971.20;;;;;;5043912;28;20067;-59
2022/01/04 09:31:05;;;;;;;222.65;187.07;;;358.80;2048.00;;;;;;5043270;28;20041;-64
2022/01/04 09:33:32;;;;;;;178.57;148.52;;;359.00;2048.00;;;;;;5041444;28;20060;-66
2022/01/04 09:35:59;;;;;;;198.90;152.95;;;359.00;2073.60;;;;;;5042075;28;20113;-65
2022/01/04 09:38:25;;;;;;;218.05;174.13;;;358.70;2073.60;;;;;;5042686;28;20014;-66
2022/01/04 09:40:53;;;;;;;258.30;205.10;;;358.90;2124.80;;;;;;5035283;28;20123;-58
2022/01/04 09:43:20;;;;;;;316.75;250.90;;;358.90;2124.80;;;;;;5032074;28;20028;-63
2022/01/04 09:45:47;;;;;;;285.75;225.43;;;358.70;2176.00;;;;;;5032402;28;20034;-58
2022/01/04 09:48:13;;;;;;;314.48;248.00;;;358.70;2176.00;;;;;;5032358;28;20034;-58
2022/01/04 09:50:41;;;;;;;341.73;236.25;;;333.60;2227.20;;;;;;5032227;28;20388;-64
2022/01/04 09:53:09;;;;;;;212.48;161.48;;;333.30;2329.60;;;;;;5032363;28;20030;-63
2022/01/04 09:55:38;;;;;;;208.65;165.45;;;333.20;2329.60;;;;;;5032118;28;20471;-63
2022/01/04 09:58:04;;;;;;;222.82;170.98;;;333.10;2329.60;;;;;;5032247;28;20147;-58
2022/01/04 10:00:30;;;;;;;238.30;183.15;;;332.90;2329.60;;;;;;5031884;28;20029;-65
2022/01/04 10:03:12;;;;;;;321.60;249.75;;;308.00;2304.00;;;;;;5031854;28;20068;-65
2022/01/04 10:05:38;;;;;;;408.42;322.42;;;307.90;2304.00;;;;;;5031452;28;20407;-57
2022/01/04 10:08:06;;;;;;;483.38;381.27;;;307.90;2304.00;;;;;;5031603;28;20112;-66
2022/01/04 10:10:33;;;;;;;498.45;388.50;;;307.90;2304.00;;;;;;5031668;28;20034;-65
2022/01/04 10:13:01;;;;;;;454.38;353.77;;;307.90;2304.00;;;;;;5031589;28;20026;-57
2022/01/04 10:15:35;;;;;;;496.88;394.33;;;307.80;2304.00;;;;;;5031695;28;20021;-62
2022/01/04 10:18:12;;;;;;;509.73;397.40;;;307.90;2304.00;;;;;;5031632;28;20025;-63
2022/01/04 10:20:39;;;;;;;422.45;324.42;;;307.80;2304.00;;;;;;5031479;28;20067;-57
2022/01/04 10:23:11;;;;;;;492.42;367.40;;;308.10;2304.00;;;;;;5031634;28;20515;-66
2022/01/04 10:25:37;;;;;;;497.58;373.42;;;307.90;2304.00;;;;;;5031416;28;20030;-61
2022/01/04 10:28:04;;;;;;;433.13;331.38;;;307.90;2304.00;;;;;;5031374;28;20025;-59
2022/01/04 10:30:36;;;;;;;397.25;311.42;;;307.80;2304.00;;;;;;5031560;28;20444;-54
2022/01/04 10:33:05;;;;;;;428.48;336.85;;;307.80;2304.00;;;;;;5031260;28;20033;-61
2022/01/04 10:35:48;;;;;;;412.98;329.45;;;307.70;2304.00;;;;;;5031289;28;20068;-61
2022/01/04 10:38:24;;;;;;;431.50;334.23;;;307.80;2304.00;;;;;;5031224;28;20083;-61
2022/01/04 10:40:51;;;;;;;398.05;312.33;;;308.00;2304.00;;;;;;5031026;28;20033;-57
2022/01/04 10:43:27;;;;;;;337.67;254.18;;;308.10;2304.00;;;;;;5031182;28;20021;-57
2022/01/04 10:45:54;;;;;;;361.65;269.58;;;308.10;2304.00;;;;;;5031173;28;20079;-61
2022/01/04 10:48:28;;;;;;;484.00;364.65;;;308.10;2304.00;;;;;;5031023;28;20052;-64
2022/01/04 10:51:03;;;;;;;510.08;401.08;;;308.10;2304.00;;;;;;5031304;28;20047;-65
2022/01/04 10:53:36;;;;;;;469.52;370.23;;;332.80;2329.60;;;;;;5030901;28;20499;-60
2022/01/04 10:56:16;;;;;;;461.85;361.50;;;332.80;2329.60;;;;;;5030698;28;20476;-58
2022/01/04 10:58:46;;;;;;;444.95;341.75;;;333.00;2329.60;;;;;;5030721;28;20022;-59
2022/01/04 11:01:14;;;;;;;510.98;398.30;;;333.00;2329.60;;;;;;5030615;28;20474;-58
2022/01/04 11:03:51;;;;;;;545.03;432.80;;;333.00;2329.60;;;;;;5030839;28;20032;-67
2022/01/04 11:06:20;;;;;;;546.75;425.02;;;333.00;2329.60;;;;;;5030661;28;20036;-65
2022/01/04 11:08:46;;;;;;;516.30;414.55;;;333.10;2329.60;;;;;;5030726;28;20021;-66
2022/01/04 11:11:12;;;;;;;661.53;522.88;;;333.30;2329.60;;;;;;5030709;28;20038;-64
2022/01/04 11:13:38;;;;;;;621.88;490.42;;;333.30;2329.60;;;;;;5030531;28;20053;-57
2022/01/04 11:16:06;;;;;;;299.77;227.15;;;333.50;2329.60;;;;;;5030660;28;20119;-57
2022/01/04 11:18:33;;;;;;;107.47;73.40;;;333.70;2329.60;;;;;;5029962;28;20458;-57
2022/01/04 11:21:00;;;;;;;71.25;51.03;;;358.50;2329.60;;;;;;5030379;28;20037;-62
2022/01/04 11:23:31;;;;;;;81.88;53.70;;;358.70;2329.60;;;;;;5030836;28;20057;-62
2022/01/04 11:25:59;;;;;;;27.27;17.55;;;358.90;2278.40;;;;;;5037483;28;20471;-65
2022/01/04 11:28:26;;;;;;;36.53;25.65;;;359.10;2150.40;;;;;;5038804;28;20025;-64
2022/01/04 11:31:17;;;;;;;37.03;23.38;;;359.20;2150.40;;;;;;5038168;28;20033;-57
2022/01/04 11:34:00;;;;;;;154.52;83.22;;;359.30;2124.80;;;;;;5037471;28;20508;-65
2022/01/04 11:36:26;;;;;;;;;;;384.10;2073.60;;;;;;5030849;28;20075;-63
2022/01/04 11:38:52;;;;;;;31.63;21.40;;;384.10;2048.00;;;;;;5030172;28;19909;-56
2022/01/04 11:41:24;;;;;;;35.28;22.98;;;384.20;2022.40;;;;;;5029998;28;20384;-58
2022/01/04 11:43:51;;;;;;;36.60;25.17;;;384.30;2022.40;;;;;;5030042;28;20026;-60
2022/01/04 11:46:34;;;;;;;108.22;62.80;;;384.40;1971.20;;;;;;5030122;28;20054;-56
2022/01/04 11:49:10;;;;;;;56.22;33.75;;;384.60;1971.20;;;;;;5029806;28;20045;-60
2022/01/04 11:51:38;;;;;;;45.75;28.80;;;384.60;1945.60;;;;;;5030244;28;20044;-56
2022/01/04 11:54:23;;;;;;;98.38;63.78;;;410.20;1971.20;;;;;;5030032;28;20480;-56
2022/01/04 11:56:51;;;;;;;115.22;82.85;;;384.80;1945.60;;;;;;5029985;28;20025;-56
2022/01/04 11:59:25;;;;;;;59.92;41.03;;;384.80;1971.20;;;;;;5030265;28;20018;-63
2022/01/04 12:01:52;;;;;;;37.72;26.90;;;384.80;1945.60;;;;;;5029684;28;20056;-56
2022/01/04 12:04:46;;;;;;;43.05;30.50;;;384.90;1920.00;;;;;;5030254;28;20021;-63